sensor_id;sensor_type;location;lat;lon;timestamp;pressure;altitude;pressure_sealevel;temperature;humidity
47522;BME280;32291;52.010;4.446;2024-03-23T00:54:00;78407.44;;;-144.67;100.00
47522;BME280;32291;52.010;4.446;2024-03-23T00:55:03;78420.28;;;-144.67;100.00
47522;BME280;32291;52.010;4.446;2024-03-23T00:56:05;78418.13;;;-144.67;100.00
47522;BME280;32291;52.010;4.446;2024-03-23T00:57:12;78411.72;;;-144.67;100.00
47522;BME280;32291;52.010;4.446;2024-03-23T00:58:14;78424.56;;;-144.67;100.00
47522;BME280;32291;52.010;4.446;2024-03-23T00:59:21;78420.28;;;-144.67;100.00
47522;BME280;32291;52.010;4.446;2024-03-23T01:00:24;78433.13;;;-144.67;100.00
47522;BME280;32291;52.010;4.446;2024-03-23T01:01:26;78435.25;;;-144.67;100.00
47522;BME280;32291;52.010;4.446;2024-03-23T01:02:28;78445.97;;;-144.67;100.00
47522;BME280;32291;52.010;4.446;2024-03-23T01:03:31;78441.69;;;-144.67;100.00
47522;BME280;32291;52.010;4.446;2024-03-23T01:04:33;78450.25;;;-144.67;100.00
47522;BME280;32291;52.010;4.446;2024-03-23T01:05:35;78452.38;;;-144.67;100.00
47522;BME280;32291;52.010;4.446;2024-03-23T01:06:37;78441.69;;;-144.67;100.00
47522;BME280;32291;52.010;4.446;2024-03-23T01:07:44;78458.81;;;-144.67;100.00
47522;BME280;32291;52.010;4.446;2024-03-23T01:08:51;78463.09;;;-144.67;100.00
47522;BME280;32291;52.010;4.446;2024-03-23T01:09:59;78471.66;;;-144.67;100.00
47522;BME280;32291;52.010;4.446;2024-03-23T01:11:02;78488.78;;;-144.67;100.00
47522;BME280;32291;52.010;4.446;2024-03-23T01:12:07;78490.94;;;-144.67;100.00
47522;BME280;32291;52.010;4.446;2024-03-23T01:13:09;78493.06;;;-144.67;100.00
47522;BME280;32291;52.010;4.446;2024-03-23T01:14:11;78488.78;;;-144.67;100.00
47522;BME280;32291;52.010;4.446;2024-03-23T01:15:26;78497.34;;;-144.67;100.00
47522;BME280;32291;52.010;4.446;2024-03-23T01:16:28;78497.34;;;-144.67;100.00
47522;BME280;32291;52.010;4.446;2024-03-23T01:17:35;78501.63;;;-144.67;100.00
47522;BME280;32291;52.010;4.446;2024-03-23T01:18:42;78501.63;;;-144.67;100.00
47522;BME280;32291;52.010;4.446;2024-03-23T01:19:44;78505.91;;;-144.67;100.00
47522;BME280;32291;52.010;4.446;2024-03-23T01:20:47;78514.47;;;-144.67;100.00
47522;BME280;32291;52.010;4.446;2024-03-23T01:21:49;78516.63;;;-144.67;100.00
47522;BME280;32291;52.010;4.446;2024-03-23T01:22:52;78518.75;;;-144.67;100.00
47522;BME280;32291;52.010;4.446;2024-03-23T01:23:59;78516.63;;;-144.67;100.00
47522;BME280;32291;52.010;4.446;2024-03-23T01:25:01;78516.63;;;-144.67;100.00
47522;BME280;32291;52.010;4.446;2024-03-23T01:26:03;78514.47;;;-144.67;100.00
47522;BME280;32291;52.010;4.446;2024-03-23T01:27:10;78505.91;;;-144.67;100.00
47522;BME280;32291;52.010;4.446;2024-03-23T01:28:13;78512.34;;;-144.67;100.00
47522;BME280;32291;52.010;4.446;2024-03-23T01:29:15;78514.47;;;-144.67;100.00
47522;BME280;32291;52.010;4.446;2024-03-23T01:30:22;78505.91;;;-144.67;99.60
47522;BME280;32291;52.010;4.446;2024-03-23T01:31:24;78505.91;;;-144.67;99.40
47522;BME280;32291;52.010;4.446;2024-03-23T01:32:26;78499.50;;;-144.67;99.38
47522;BME280;32291;52.010;4.446;2024-03-23T01:33:28;78501.63;;;-144.67;99.40
47522;BME280;32291;52.010;4.446;2024-03-23T01:34:35;78510.19;;;-144.67;99.34
47522;BME280;32291;52.010;4.446;2024-03-23T01:35:38;78512.34;;;-144.67;99.42
47522;BME280;32291;52.010;4.446;2024-03-23T01:36:40;78514.47;;;-144.67;99.45
47522;BME280;32291;52.010;4.446;2024-03-23T01:37:43;78510.19;;;-144.67;99.37
47522;BME280;32291;52.010;4.446;2024-03-23T01:38:51;78512.34;;;-144.67;99.21
47522;BME280;32291;52.010;4.446;2024-03-23T01:39:58;78514.47;;;-144.67;99.11
47522;BME280;32291;52.010;4.446;2024-03-23T01:41:00;78514.47;;;-144.67;99.33
47522;BME280;32291;52.010;4.446;2024-03-23T01:42:03;78518.75;;;-144.67;99.39
47522;BME280;32291;52.010;4.446;2024-03-23T01:43:08;78523.03;;;-144.67;99.32
47522;BME280;32291;52.010;4.446;2024-03-23T01:44:15;78512.34;;;-144.67;99.27
47522;BME280;32291;52.010;4.446;2024-03-23T01:45:23;78518.75;;;-144.67;98.40
47522;BME280;32291;52.010;4.446;2024-03-23T01:46:25;78514.47;;;-144.67;98.87
47522;BME280;32291;52.010;4.446;2024-03-23T01:47:27;78514.47;;;-144.67;98.65
47522;BME280;32291;52.010;4.446;2024-03-23T01:48:29;78529.47;;;-144.67;98.29
47522;BME280;32291;52.010;4.446;2024-03-23T01:49:31;78525.19;;;-144.67;98.49
47522;BME280;32291;52.010;4.446;2024-03-23T01:50:35;78514.47;;;-144.67;98.13
47522;BME280;32291;52.010;4.446;2024-03-23T01:51:40;78514.47;;;-144.67;98.10
47522;BME280;32291;52.010;4.446;2024-03-23T01:52:43;78523.03;;;-144.67;97.66
47522;BME280;32291;52.010;4.446;2024-03-23T01:53:46;78523.03;;;-144.67;97.76
47522;BME280;32291;52.010;4.446;2024-03-23T01:54:48;78533.75;;;-144.67;96.97
47522;BME280;32291;52.010;4.446;2024-03-23T01:55:56;78514.47;;;-144.67;96.95
47522;BME280;32291;52.010;4.446;2024-03-23T01:56:59;78514.47;;;-144.67;96.16
47522;BME280;32291;52.010;4.446;2024-03-23T01:58:01;78510.19;;;-144.67;96.56
47522;BME280;32291;52.010;4.446;2024-03-23T01:59:07;78516.63;;;-144.67;96.42
47522;BME280;32291;52.010;4.446;2024-03-23T02:00:10;78514.47;;;-144.67;96.24
47522;BME280;32291;52.010;4.446;2024-03-23T02:01:14;78518.75;;;-144.67;96.09
47522;BME280;32291;52.010;4.446;2024-03-23T02:02:16;78520.91;;;-144.67;96.22
47522;BME280;32291;52.010;4.446;2024-03-23T02:03:28;78523.03;;;-144.67;96.34
47522;BME280;32291;52.010;4.446;2024-03-23T02:04:30;78523.03;;;-144.67;96.41
47522;BME280;32291;52.010;4.446;2024-03-23T02:05:33;78527.31;;;-144.67;96.41
47522;BME280;32291;52.010;4.446;2024-03-23T02:06:35;78523.03;;;-144.67;96.63
47522;BME280;32291;52.010;4.446;2024-03-23T02:07:39;78527.31;;;-144.67;96.59
47522;BME280;32291;52.010;4.446;2024-03-23T02:08:43;78523.03;;;-144.67;96.24
47522;BME280;32291;52.010;4.446;2024-03-23T02:09:46;78523.03;;;-144.67;96.46
47522;BME280;32291;52.010;4.446;2024-03-23T02:10:52;78525.19;;;-144.67;96.34
47522;BME280;32291;52.010;4.446;2024-03-23T02:11:55;78527.31;;;-144.67;96.24
47522;BME280;32291;52.010;4.446;2024-03-23T02:13:01;78523.03;;;-144.67;96.20
47522;BME280;32291;52.010;4.446;2024-03-23T02:14:06;78529.47;;;-144.67;96.15
47522;BME280;32291;52.010;4.446;2024-03-23T02:15:09;78531.63;;;-144.67;96.56
47522;BME280;32291;52.010;4.446;2024-03-23T02:16:12;78540.19;;;-144.67;96.25
47522;BME280;32291;52.010;4.446;2024-03-23T02:17:20;78542.31;;;-144.67;96.68
47522;BME280;32291;52.010;4.446;2024-03-23T02:18:22;78538.03;;;-144.67;96.60
47522;BME280;32291;52.010;4.446;2024-03-23T02:19:28;78535.91;;;-144.67;96.65
47522;BME280;32291;52.010;4.446;2024-03-23T02:20:31;78546.59;;;-144.67;96.98
47522;BME280;32291;52.010;4.446;2024-03-23T02:21:33;78540.19;;;-144.67;97.29
47522;BME280;32291;52.010;4.446;2024-03-23T02:22:39;78540.19;;;-144.67;97.02
47522;BME280;32291;52.010;4.446;2024-03-23T02:23:46;78540.19;;;-144.67;97.27
47522;BME280;32291;52.010;4.446;2024-03-23T02:24:48;78540.19;;;-144.67;97.18
47522;BME280;32291;52.010;4.446;2024-03-23T02:25:51;78550.88;;;-144.67;97.01
47522;BME280;32291;52.010;4.446;2024-03-23T02:26:53;78553.03;;;-144.67;97.58
47522;BME280;32291;52.010;4.446;2024-03-23T02:28:01;78546.59;;;-144.67;97.73
47522;BME280;32291;52.010;4.446;2024-03-23T02:29:03;78542.31;;;-144.67;97.56
47522;BME280;32291;52.010;4.446;2024-03-23T02:30:10;78542.31;;;-144.67;97.63
47522;BME280;32291;52.010;4.446;2024-03-23T02:31:17;78546.59;;;-144.67;97.72
47522;BME280;32291;52.010;4.446;2024-03-23T02:32:19;78544.47;;;-144.67;97.79
47522;BME280;32291;52.010;4.446;2024-03-23T02:33:21;78542.31;;;-144.67;97.73
47522;BME280;32291;52.010;4.446;2024-03-23T02:34:23;78544.47;;;-144.67;97.62
47522;BME280;32291;52.010;4.446;2024-03-23T02:35:30;78544.47;;;-144.67;97.54
47522;BME280;32291;52.010;4.446;2024-03-23T02:36:37;78557.31;;;-144.67;97.13
47522;BME280;32291;52.010;4.446;2024-03-23T02:37:46;78544.47;;;-144.67;97.30
47522;BME280;32291;52.010;4.446;2024-03-23T02:38:50;78548.75;;;-144.67;97.49
47522;BME280;32291;52.010;4.446;2024-03-23T02:39:57;78546.59;;;-144.67;97.37
47522;BME280;32291;52.010;4.446;2024-03-23T02:41:05;78544.47;;;-144.67;97.08
47522;BME280;32291;52.010;4.446;2024-03-23T02:42:12;78546.59;;;-144.67;97.00
47522;BME280;32291;52.010;4.446;2024-03-23T02:43:14;78544.47;;;-144.67;96.92
47522;BME280;32291;52.010;4.446;2024-03-23T02:44:21;78535.91;;;-144.67;96.64
47522;BME280;32291;52.010;4.446;2024-03-23T02:45:24;78531.63;;;-144.67;96.43
47522;BME280;32291;52.010;4.446;2024-03-23T02:46:26;78529.47;;;-144.67;96.05
47522;BME280;32291;52.010;4.446;2024-03-23T02:47:33;78527.31;;;-144.67;96.06
47522;BME280;32291;52.010;4.446;2024-03-23T02:48:40;78523.03;;;-144.67;96.08
47522;BME280;32291;52.010;4.446;2024-03-23T02:49:42;78533.75;;;-144.67;95.88
47522;BME280;32291;52.010;4.446;2024-03-23T02:50:47;78523.03;;;-144.67;96.06
47522;BME280;32291;52.010;4.446;2024-03-23T02:51:49;78523.03;;;-144.67;95.88
47522;BME280;32291;52.010;4.446;2024-03-23T02:52:54;78523.03;;;-144.67;95.93
47522;BME280;32291;52.010;4.446;2024-03-23T02:53:56;78527.31;;;-144.67;95.73
47522;BME280;32291;52.010;4.446;2024-03-23T02:54:58;78518.75;;;-144.67;95.88
47522;BME280;32291;52.010;4.446;2024-03-23T02:56:00;78518.75;;;-144.67;95.71
47522;BME280;32291;52.010;4.446;2024-03-23T02:57:03;78527.31;;;-144.67;95.56
47522;BME280;32291;52.010;4.446;2024-03-23T02:58:10;78523.03;;;-144.67;95.71
47522;BME280;32291;52.010;4.446;2024-03-23T02:59:16;78529.47;;;-144.67;95.93
47522;BME280;32291;52.010;4.446;2024-03-23T03:00:18;78525.19;;;-144.67;95.75
47522;BME280;32291;52.010;4.446;2024-03-23T03:01:21;78523.03;;;-144.67;95.57
47522;BME280;32291;52.010;4.446;2024-03-23T03:02:23;78527.31;;;-144.67;95.43
47522;BME280;32291;52.010;4.446;2024-03-23T03:03:30;78516.63;;;-144.67;95.19
47522;BME280;32291;52.010;4.446;2024-03-23T03:04:37;78510.19;;;-144.67;95.03
47522;BME280;32291;52.010;4.446;2024-03-23T03:05:44;78501.63;;;-144.67;94.70
47522;BME280;32291;52.010;4.446;2024-03-23T03:06:51;78505.91;;;-144.67;94.31
47522;BME280;32291;52.010;4.446;2024-03-23T03:07:53;78501.63;;;-144.67;94.17
47522;BME280;32291;52.010;4.446;2024-03-23T03:08:55;78497.34;;;-144.67;93.98
47522;BME280;32291;52.010;4.446;2024-03-23T03:10:02;78484.50;;;-144.67;93.54
47522;BME280;32291;52.010;4.446;2024-03-23T03:11:11;78490.94;;;-144.67;93.32
47522;BME280;32291;52.010;4.446;2024-03-23T03:12:13;78488.78;;;-144.67;93.32
47522;BME280;32291;52.010;4.446;2024-03-23T03:13:15;78482.38;;;-144.67;92.84
47522;BME280;32291;52.010;4.446;2024-03-23T03:14:17;78469.53;;;-144.67;92.93
47522;BME280;32291;52.010;4.446;2024-03-23T03:15:25;78482.38;;;-144.67;92.80
47522;BME280;32291;52.010;4.446;2024-03-23T03:16:32;78478.09;;;-144.67;92.66
47522;BME280;32291;52.010;4.446;2024-03-23T03:17:34;78497.34;;;-144.67;92.82
47522;BME280;32291;52.010;4.446;2024-03-23T03:18:36;78493.06;;;-144.67;92.64
47522;BME280;32291;52.010;4.446;2024-03-23T03:19:43;78490.94;;;-144.67;92.31
47522;BME280;32291;52.010;4.446;2024-03-23T03:20:45;78484.50;;;-144.67;91.91
47522;BME280;32291;52.010;4.446;2024-03-23T03:21:53;78480.22;;;-144.67;91.28
47522;BME280;32291;52.010;4.446;2024-03-23T03:22:59;78475.94;;;-144.67;91.42
47522;BME280;32291;52.010;4.446;2024-03-23T03:24:06;78467.38;;;-144.67;90.91
47522;BME280;32291;52.010;4.446;2024-03-23T03:25:11;78463.09;;;-144.67;90.58
47522;BME280;32291;52.010;4.446;2024-03-23T03:26:13;78465.25;;;-144.67;90.65
47522;BME280;32291;52.010;4.446;2024-03-23T03:27:15;78467.38;;;-144.67;90.33
47522;BME280;32291;52.010;4.446;2024-03-23T03:28:18;78463.09;;;-144.67;89.87
47522;BME280;32291;52.010;4.446;2024-03-23T03:29:25;78473.81;;;-144.67;90.02
47522;BME280;32291;52.010;4.446;2024-03-23T03:30:27;78467.38;;;-144.67;89.79
47522;BME280;32291;52.010;4.446;2024-03-23T03:31:29;78452.38;;;-144.67;89.31
47522;BME280;32291;52.010;4.446;2024-03-23T03:32:36;78456.66;;;-144.67;89.04
47522;BME280;32291;52.010;4.446;2024-03-23T03:33:41;78460.94;;;-144.67;89.13
47522;BME280;32291;52.010;4.446;2024-03-23T03:34:43;78467.38;;;-144.67;88.80
47522;BME280;32291;52.010;4.446;2024-03-23T03:35:45;78473.81;;;-144.67;89.22
47522;BME280;32291;52.010;4.446;2024-03-23T03:36:47;78463.09;;;-144.67;89.07
47522;BME280;32291;52.010;4.446;2024-03-23T03:37:49;78458.81;;;-144.67;89.05
47522;BME280;32291;52.010;4.446;2024-03-23T03:38:52;78456.66;;;-144.67;88.94
47522;BME280;32291;52.010;4.446;2024-03-23T03:39:54;78460.94;;;-144.67;89.12
47522;BME280;32291;52.010;4.446;2024-03-23T03:40:56;78450.25;;;-144.67;88.71
47522;BME280;32291;52.010;4.446;2024-03-23T03:42:00;78454.53;;;-144.67;89.00
47522;BME280;32291;52.010;4.446;2024-03-23T03:43:04;78454.53;;;-144.67;88.63
47522;BME280;32291;52.010;4.446;2024-03-23T03:44:06;78467.38;;;-144.67;89.07
47522;BME280;32291;52.010;4.446;2024-03-23T03:45:11;78484.50;;;-144.67;89.45
47522;BME280;32291;52.010;4.446;2024-03-23T03:46:13;78488.78;;;-144.67;89.36
47522;BME280;32291;52.010;4.446;2024-03-23T03:47:15;78493.06;;;-144.67;89.47
47522;BME280;32291;52.010;4.446;2024-03-23T03:48:22;78473.81;;;-144.67;89.37
47522;BME280;32291;52.010;4.446;2024-03-23T03:49:24;78465.25;;;-144.67;89.00
47522;BME280;32291;52.010;4.446;2024-03-23T03:50:27;78471.66;;;-144.67;89.21
47522;BME280;32291;52.010;4.446;2024-03-23T03:51:34;78475.94;;;-144.67;89.13
47522;BME280;32291;52.010;4.446;2024-03-23T03:52:36;78467.38;;;-144.67;88.66
47522;BME280;32291;52.010;4.446;2024-03-23T03:53:38;78454.53;;;-144.67;88.76
47522;BME280;32291;52.010;4.446;2024-03-23T03:54:40;78460.94;;;-144.67;88.73
47522;BME280;32291;52.010;4.446;2024-03-23T03:55:42;78463.09;;;-144.67;88.32
47522;BME280;32291;52.010;4.446;2024-03-23T03:56:44;78458.81;;;-144.67;88.40
47522;BME280;32291;52.010;4.446;2024-03-23T03:57:47;78469.53;;;-144.67;88.37
47522;BME280;32291;52.010;4.446;2024-03-23T03:58:49;78424.56;;;-144.67;87.55
47522;BME280;32291;52.010;4.446;2024-03-23T03:59:51;78424.56;;;-144.67;87.16
47522;BME280;32291;52.010;4.446;2024-03-23T04:00:54;78428.84;;;-144.67;87.31
47522;BME280;32291;52.010;4.446;2024-03-23T04:02:03;78411.72;;;-144.67;87.10
47522;BME280;32291;52.010;4.446;2024-03-23T04:03:06;78416.00;;;-144.67;87.03
47522;BME280;32291;52.010;4.446;2024-03-23T04:04:08;78413.84;;;-144.67;86.74
47522;BME280;32291;52.010;4.446;2024-03-23T04:05:10;78409.56;;;-144.67;86.87
47522;BME280;32291;52.010;4.446;2024-03-23T04:06:19;78407.44;;;-144.67;86.72
47522;BME280;32291;52.010;4.446;2024-03-23T04:07:21;78413.84;;;-144.67;86.88
47522;BME280;32291;52.010;4.446;2024-03-23T04:08:25;78420.28;;;-144.67;86.87
47522;BME280;32291;52.010;4.446;2024-03-23T04:09:27;78426.69;;;-144.67;87.44
47522;BME280;32291;52.010;4.446;2024-03-23T04:10:34;78420.28;;;-144.67;87.11
47522;BME280;32291;52.010;4.446;2024-03-23T04:11:36;78454.53;;;-144.67;87.75
47522;BME280;32291;52.010;4.446;2024-03-23T04:12:43;78441.69;;;-144.67;87.50
47522;BME280;32291;52.010;4.446;2024-03-23T04:13:45;78435.25;;;-144.67;87.92
47522;BME280;32291;52.010;4.446;2024-03-23T04:14:47;78445.97;;;-144.67;88.05
47522;BME280;32291;52.010;4.446;2024-03-23T04:15:54;78445.97;;;-144.67;88.20
47522;BME280;32291;52.010;4.446;2024-03-23T04:16:57;78441.69;;;-144.67;88.27
47522;BME280;32291;52.010;4.446;2024-03-23T04:17:59;78439.53;;;-144.67;88.22
47522;BME280;32291;52.010;4.446;2024-03-23T04:19:01;78428.84;;;-144.67;88.00
47522;BME280;32291;52.010;4.446;2024-03-23T04:20:04;78420.28;;;-144.67;87.72
47522;BME280;32291;52.010;4.446;2024-03-23T04:21:10;78428.84;;;-144.67;87.85
47522;BME280;32291;52.010;4.446;2024-03-23T04:22:13;78424.56;;;-144.67;87.64
47522;BME280;32291;52.010;4.446;2024-03-23T04:23:15;78420.28;;;-144.67;87.79
47522;BME280;32291;52.010;4.446;2024-03-23T04:24:17;78433.13;;;-144.67;88.15
47522;BME280;32291;52.010;4.446;2024-03-23T04:25:26;78428.84;;;-144.67;88.25
47522;BME280;32291;52.010;4.446;2024-03-23T04:26:28;78422.41;;;-144.67;87.76
47522;BME280;32291;52.010;4.446;2024-03-23T04:27:30;78420.28;;;-144.67;87.93
47522;BME280;32291;52.010;4.446;2024-03-23T04:28:32;78413.84;;;-144.67;87.54
47522;BME280;32291;52.010;4.446;2024-03-23T04:29:35;78407.44;;;-144.67;87.32
47522;BME280;32291;52.010;4.446;2024-03-23T04:30:42;78416.00;;;-144.67;87.59
47522;BME280;32291;52.010;4.446;2024-03-23T04:31:44;78411.72;;;-144.67;87.66
47522;BME280;32291;52.010;4.446;2024-03-23T04:32:51;78426.69;;;-144.67;87.78
47522;BME280;32291;52.010;4.446;2024-03-23T04:33:53;78422.41;;;-144.67;87.72
47522;BME280;32291;52.010;4.446;2024-03-23T04:35:00;78416.00;;;-144.67;87.49
47522;BME280;32291;52.010;4.446;2024-03-23T04:36:05;78418.13;;;-144.67;87.79
47522;BME280;32291;52.010;4.446;2024-03-23T04:37:09;78433.13;;;-144.67;88.18
47522;BME280;32291;52.010;4.446;2024-03-23T04:38:12;78424.56;;;-144.67;88.00
47522;BME280;32291;52.010;4.446;2024-03-23T04:39:14;78433.13;;;-144.67;88.23
47522;BME280;32291;52.010;4.446;2024-03-23T04:40:21;78443.81;;;-144.67;88.68
47522;BME280;32291;52.010;4.446;2024-03-23T04:41:23;78441.69;;;-144.67;88.89
47522;BME280;32291;52.010;4.446;2024-03-23T04:42:25;78437.41;;;-144.67;88.80
47522;BME280;32291;52.010;4.446;2024-03-23T04:43:27;78428.84;;;-144.67;89.16
47522;BME280;32291;52.010;4.446;2024-03-23T04:44:35;78428.84;;;-144.67;89.10
47522;BME280;32291;52.010;4.446;2024-03-23T04:45:37;78420.28;;;-144.67;88.78
47522;BME280;32291;52.010;4.446;2024-03-23T04:46:39;78420.28;;;-144.67;88.56
47522;BME280;32291;52.010;4.446;2024-03-23T04:47:41;78422.41;;;-144.67;88.66
47522;BME280;32291;52.010;4.446;2024-03-23T04:48:43;78422.41;;;-144.67;88.61
47522;BME280;32291;52.010;4.446;2024-03-23T04:49:46;78428.84;;;-144.67;88.63
47522;BME280;32291;52.010;4.446;2024-03-23T04:50:58;78409.56;;;-144.67;88.48
47522;BME280;32291;52.010;4.446;2024-03-23T04:52:02;78411.72;;;-144.67;88.34
47522;BME280;32291;52.010;4.446;2024-03-23T04:53:09;78420.28;;;-144.67;88.73
47522;BME280;32291;52.010;4.446;2024-03-23T04:54:12;78405.28;;;-144.67;88.36
47522;BME280;32291;52.010;4.446;2024-03-23T04:55:14;78398.88;;;-144.67;88.27
47522;BME280;32291;52.010;4.446;2024-03-23T04:56:17;78398.88;;;-144.67;88.51
47522;BME280;32291;52.010;4.446;2024-03-23T04:57:20;78407.44;;;-144.67;88.70
47522;BME280;32291;52.010;4.446;2024-03-23T04:58:25;78386.03;;;-144.67;88.53
47522;BME280;32291;52.010;4.446;2024-03-23T04:59:28;78383.88;;;-144.67;88.29
47522;BME280;32291;52.010;4.446;2024-03-23T05:00:30;78373.16;;;-144.67;88.22
47522;BME280;32291;52.010;4.446;2024-03-23T05:01:37;78349.63;;;-144.67;87.81
47522;BME280;32291;52.010;4.446;2024-03-23T05:02:44;78353.91;;;-144.67;87.58
47522;BME280;32291;52.010;4.446;2024-03-23T05:03:47;78358.19;;;-144.67;87.85
47522;BME280;32291;52.010;4.446;2024-03-23T05:04:56;78353.91;;;-144.67;88.03
47522;BME280;32291;52.010;4.446;2024-03-23T05:05:58;78358.19;;;-144.67;87.85
47522;BME280;32291;52.010;4.446;2024-03-23T05:07:00;78356.03;;;-144.67;87.98
47522;BME280;32291;52.010;4.446;2024-03-23T05:08:03;78360.31;;;-144.67;88.09
47522;BME280;32291;52.010;4.446;2024-03-23T05:09:06;78347.47;;;-144.67;88.05
47522;BME280;32291;52.010;4.446;2024-03-23T05:10:10;78334.63;;;-144.67;87.83
47522;BME280;32291;52.010;4.446;2024-03-23T05:11:13;78356.03;;;-144.67;87.72
47522;BME280;32291;52.010;4.446;2024-03-23T05:12:20;78386.03;;;-144.67;88.27
47522;BME280;32291;52.010;4.446;2024-03-23T05:13:22;78392.44;;;-144.67;88.26
47522;BME280;32291;52.010;4.446;2024-03-23T05:14:24;78360.31;;;-144.67;87.35
47522;BME280;32291;52.010;4.446;2024-03-23T05:15:29;78377.44;;;-144.67;87.35
47522;BME280;32291;52.010;4.446;2024-03-23T05:16:31;78403.16;;;-144.67;87.16
47522;BME280;32291;52.010;4.446;2024-03-23T05:17:39;78403.16;;;-144.67;87.28
47522;BME280;32291;52.010;4.446;2024-03-23T05:18:48;78411.72;;;-144.67;86.99
47522;BME280;32291;52.010;4.446;2024-03-23T05:19:50;78381.72;;;-144.67;86.41
47522;BME280;32291;52.010;4.446;2024-03-23T05:20:56;78383.88;;;-144.67;86.38
47522;BME280;32291;52.010;4.446;2024-03-23T05:21:59;78396.72;;;-144.67;86.48
47522;BME280;32291;52.010;4.446;2024-03-23T05:23:06;78390.31;;;-144.67;86.43
47522;BME280;32291;52.010;4.446;2024-03-23T05:24:11;78403.16;;;-144.67;86.43
47522;BME280;32291;52.010;4.446;2024-03-23T05:25:14;78388.16;;;-144.67;86.41
47522;BME280;32291;52.010;4.446;2024-03-23T05:26:17;78396.72;;;-144.67;85.93
47522;BME280;32291;52.010;4.446;2024-03-23T05:27:20;78418.13;;;-144.67;86.59
47522;BME280;32291;52.010;4.446;2024-03-23T05:28:26;78403.16;;;-144.67;86.25
47522;BME280;32291;52.010;4.446;2024-03-23T05:29:33;78411.72;;;-144.67;86.31
47522;BME280;32291;52.010;4.446;2024-03-23T05:30:35;78398.88;;;-144.67;86.26
47522;BME280;32291;52.010;4.446;2024-03-23T05:31:38;78416.00;;;-144.67;86.60
47522;BME280;32291;52.010;4.446;2024-03-23T05:32:40;78386.03;;;-144.67;86.27
47522;BME280;32291;52.010;4.446;2024-03-23T05:33:43;78377.44;;;-144.67;86.03
47522;BME280;32291;52.010;4.446;2024-03-23T05:34:51;78401.00;;;-144.67;86.53
47522;BME280;32291;52.010;4.446;2024-03-23T05:36:00;78424.56;;;-144.67;87.38
47522;BME280;32291;52.010;4.446;2024-03-23T05:37:08;78405.28;;;-144.67;87.11
47522;BME280;32291;52.010;4.446;2024-03-23T05:38:10;78403.16;;;-144.67;87.47
47522;BME280;32291;52.010;4.446;2024-03-23T05:39:12;78386.03;;;-144.67;86.68
47522;BME280;32291;52.010;4.446;2024-03-23T05:40:19;78398.88;;;-144.67;87.22
47522;BME280;32291;52.010;4.446;2024-03-23T05:41:21;78405.28;;;-144.67;87.57
47522;BME280;32291;52.010;4.446;2024-03-23T05:42:26;78394.59;;;-144.67;87.26
47522;BME280;32291;52.010;4.446;2024-03-23T05:43:28;78396.72;;;-144.67;87.54
47522;BME280;32291;52.010;4.446;2024-03-23T05:44:35;78383.88;;;-144.67;87.28
47522;BME280;32291;52.010;4.446;2024-03-23T05:45:37;78373.16;;;-144.67;87.13
47522;BME280;32291;52.010;4.446;2024-03-23T05:46:42;78386.03;;;-144.67;87.18
47522;BME280;32291;52.010;4.446;2024-03-23T05:47:54;78407.44;;;-144.67;87.61
47522;BME280;32291;52.010;4.446;2024-03-23T05:49:02;78411.72;;;-144.67;87.59
47522;BME280;32291;52.010;4.446;2024-03-23T05:50:09;78401.00;;;-144.67;87.40
47522;BME280;32291;52.010;4.446;2024-03-23T05:51:14;78413.84;;;-144.67;87.59
47522;BME280;32291;52.010;4.446;2024-03-23T05:52:17;78422.41;;;-144.67;87.77
47522;BME280;32291;52.010;4.446;2024-03-23T05:53:24;78450.25;;;-144.67;88.24
47522;BME280;32291;52.010;4.446;2024-03-23T05:54:26;78448.09;;;-144.67;88.49
47522;BME280;32291;52.010;4.446;2024-03-23T05:55:29;78443.81;;;-144.67;88.44
47522;BME280;32291;52.010;4.446;2024-03-23T05:56:31;78420.28;;;-144.67;88.13
47522;BME280;32291;52.010;4.446;2024-03-23T05:57:33;78437.41;;;-144.67;88.30
47522;BME280;32291;52.010;4.446;2024-03-23T05:58:35;78407.44;;;-144.67;87.98
47522;BME280;32291;52.010;4.446;2024-03-23T05:59:42;78398.88;;;-144.67;87.46
47522;BME280;32291;52.010;4.446;2024-03-23T06:00:45;78396.72;;;-144.67;87.42
47522;BME280;32291;52.010;4.446;2024-03-23T06:01:48;78435.25;;;-144.67;88.00
47522;BME280;32291;52.010;4.446;2024-03-23T06:02:50;78441.69;;;-144.67;88.09
47522;BME280;32291;52.010;4.446;2024-03-23T06:03:57;78437.41;;;-144.67;88.16
47522;BME280;32291;52.010;4.446;2024-03-23T06:04:59;78426.69;;;-144.67;87.85
47522;BME280;32291;52.010;4.446;2024-03-23T06:06:01;78422.41;;;-144.67;87.81
47522;BME280;32291;52.010;4.446;2024-03-23T06:07:08;78454.53;;;-144.67;88.32
47522;BME280;32291;52.010;4.446;2024-03-23T06:08:20;78463.09;;;-144.67;88.94
47522;BME280;32291;52.010;4.446;2024-03-23T06:09:22;78448.09;;;-144.67;88.62
47522;BME280;32291;52.010;4.446;2024-03-23T06:10:29;78437.41;;;-144.67;88.09
47522;BME280;32291;52.010;4.446;2024-03-23T06:11:32;78433.13;;;-144.67;88.05
47522;BME280;32291;52.010;4.446;2024-03-23T06:12:35;78430.97;;;-144.67;87.82
47522;BME280;32291;52.010;4.446;2024-03-23T06:13:41;78424.56;;;-144.67;87.66
47522;BME280;32291;52.010;4.446;2024-03-23T06:14:43;78411.72;;;-144.67;87.30
47522;BME280;32291;52.010;4.446;2024-03-23T06:15:45;78407.44;;;-144.67;87.28
47522;BME280;32291;52.010;4.446;2024-03-23T06:16:48;78422.41;;;-144.67;87.51
47522;BME280;32291;52.010;4.446;2024-03-23T06:17:51;78418.13;;;-144.67;87.48
47522;BME280;32291;52.010;4.446;2024-03-23T06:18:54;78416.00;;;-144.67;87.56
47522;BME280;32291;52.010;4.446;2024-03-23T06:20:00;78418.13;;;-144.67;87.69
47522;BME280;32291;52.010;4.446;2024-03-23T06:21:03;78420.28;;;-144.67;87.80
47522;BME280;32291;52.010;4.446;2024-03-23T06:22:10;78422.41;;;-144.67;88.00
47522;BME280;32291;52.010;4.446;2024-03-23T06:23:12;78420.28;;;-144.67;87.82